Bookmark and Share
Track history (hours):
 

Wilson Lista

Last reported at 2014-Apr-18 03:31 UTC. Time now 2014-Apr-20 08:50 UTC.
Position N 55°37' E 004°43'.

Length 88 m; draft 5.1 m.

Type: Cargo ship. MMSI: 314188000.

NotesDate/timePositionNaut miles runAvg speedWind from/ knotsBaromVisibWave heightAir tempDewpointWater temp
2014-Apr-18 03:31N 55°37' E 004°43'12 6.1
2014-Apr-18 01:30N 55°25' E 004°44'115 7.7
2014-Apr-17 10:33N 53°30' E 004°45'30 9.9
2014-Apr-17 07:33N 53°02' E 004°24'1110.9
2014-Apr-17 06:33N 52°53' E 004°16'1111.2
2014-Apr-17 05:33N 52°43' E 004°08'1010.3
2014-Apr-17 04:34N 52°32' E 004°09'10 9.7
2014-Apr-17 03:33N 52°29' E 004°24'161161.0
2014-Apr-17 02:33N 52°28' E 000°00'175174.9
2014-Apr-17 01:34N 52°25' E 004°46'1 0.8
2014-Apr-17 00:33N 52°24' E 004°47'0 0.0
2014-Apr-16 23:34N 52°24' E 004°47'0 0.0
2014-Apr-16 22:33N 52°24' E 004°47'0 0.0
2014-Apr-16 21:34N 52°24' E 004°47'0 0.0
2014-Apr-16 20:33N 52°24' E 004°47'0 0.0
2014-Apr-16 19:33N 52°24' E 004°47'0 0.0
2014-Apr-16 18:33N 52°24' E 004°47'0 0.0
2014-Apr-16 17:33N 52°24' E 004°47'0 0.0
2014-Apr-16 16:33N 52°24' E 004°47'0 0.0
2014-Apr-16 15:34N 52°24' E 004°47'0 0.0
2014-Apr-16 14:33N 52°24' E 004°47'0 0.0
2014-Apr-16 13:33N 52°24' E 004°47'0 0.0
2014-Apr-16 12:33N 52°24' E 004°47'0 0.0
2014-Apr-16 11:33N 52°24' E 004°47'0 0.0
2014-Apr-16 10:33N 52°24' E 004°47'0 0.0
2014-Apr-16 09:33N 52°24' E 004°47'0 0.2
2014-Apr-16 08:34N 52°24' E 004°47'7 7.2
2014-Apr-16 07:33N 52°28' E 004°37'3 3.5
2014-Apr-16 06:33N 52°28' E 004°31'8 7.7
2014-Apr-16 05:33N 52°28' E 004°18'7 6.7
2014-Apr-16 04:34N 52°28' E 004°07'7 6.9
2014-Apr-16 03:33N 52°26' E 003°56'7 6.0
2014-Apr-16 02:20N 52°20' E 003°52'6 8.1
2014-Apr-16 01:34N 52°13' E 003°54'8 7.7
2014-Apr-16 00:34N 52°06' E 003°56'9 8.7
2014-Apr-15 23:33N 51°59' E 004°05'1111.3
2014-Apr-15 22:33N 51°54' E 004°21'2 2.4
2014-Apr-15 21:33N 51°54' E 004°25'0 0.0
2014-Apr-15 20:32N 51°54' E 004°25'0 0.0
2014-Apr-15 19:31N 51°54' E 004°25'0 0.0
2014-Apr-15 18:23N 51°54' E 004°25'0 0.0
2014-Apr-15 17:33N 51°54' E 004°25'0 0.0
2014-Apr-15 16:33N 51°54' E 004°25'0 0.0
2014-Apr-15 15:33N 51°54' E 004°25'2 2.0
2014-Apr-15 14:25N 51°54' E 004°28'0 0.0
2014-Apr-15 12:33N 51°54' E 004°28'0 0.0
2014-Apr-15 11:33N 51°54' E 004°28'0 0.0
2014-Apr-15 10:34N 51°54' E 004°28'0 0.0
2014-Apr-15 09:34N 51°54' E 004°28'6 6.2
2014-Apr-15 08:34N 51°54' E 004°18'8 7.9
2014-Apr-15 07:32N 51°58' E 004°07'  
2014-Apr-09 17:33N 66°17' E 012°10'9 8.9
2014-Apr-09 16:33N 66°15' E 012°31'  

Dump ship's entire track history

sailing weather and tide predictions

Wilson Lista — 8PRW — position and weather